Data Viewer
| City | State | Eastern Time | Source | Temp | DewPt | RH | BP | 5 Min Precip | Wind Speed | Wind Dir | 5 Min Wind Max | 5 Min Wind Max Dir |
|---|---|---|---|---|---|---|---|---|---|---|---|---|
| Wilmington (ASOS) | DE | 2026-05-01 18:20 | ASOS | 64 | 34 | 32 | 29.87 | 13 | S | |||
| Wilmington (ASOS) | DE | 2026-05-02 10:10 | ASOS | 54 | 39 | 58 | 29.93 | 9 | N | |||
| Wilmington (ASOS) | DE | 2026-05-02 10:40 | ASOS | 55 | 39 | 54 | 29.93 | 10 | NNW | |||
| Wilmington (ASOS) | DE | 2026-05-02 10:35 | ASOS | 54 | 39 | 58 | 29.93 | 9 | NNW | |||
| Wilmington (ASOS) | DE | 2026-05-02 10:30 | ASOS | 54 | 39 | 58 | 29.93 | 7 | N | |||
| Wilmington (ASOS) | DE | 2026-05-02 10:25 | ASOS | 55 | 39 | 54 | 29.93 | 12 | NNW | |||
| Wilmington (ASOS) | DE | 2026-05-02 10:20 | ASOS | 54 | 39 | 58 | 29.93 | 12 | NNW | |||
| Wilmington (ASOS) | DE | 2026-05-02 10:15 | ASOS | 54 | 39 | 58 | 29.93 | 9 | NNW | |||
| Wilmington (ASOS) | DE | 2026-05-02 10:05 | ASOS | 54 | 39 | 58 | 29.93 | 10 | N | |||
| Wilmington (ASOS) | DE | 2026-05-02 10:50 | ASOS | 55 | 39 | 54 | 29.93 | 10 | NW | |||
| Wilmington (ASOS) | DE | 2026-05-02 10:00 | ASOS | 54 | 39 | 58 | 29.93 | 12 | N | |||
| Wilmington (ASOS) | DE | 2026-05-02 09:51 | ASOS | 53 | 40 | 61 | 29.93 | 10 | NNW | |||
| Wilmington (ASOS) | DE | 2026-05-02 09:50 | ASOS | 54 | 39 | 58 | 29.93 | 9 | NNW | |||
| Wilmington (ASOS) | DE | 2026-05-02 09:45 | ASOS | 54 | 39 | 58 | 29.94 | 12 | NNW | |||
| Wilmington (ASOS) | DE | 2026-05-02 09:40 | ASOS | 54 | 39 | 58 | 29.93 | 10 | NNW | |||
| Wilmington (ASOS) | DE | 2026-05-02 09:35 | ASOS | 54 | 39 | 58 | 29.93 | 12 | N | |||
| Wilmington (ASOS) | DE | 2026-05-02 10:45 | ASOS | 55 | 37 | 51 | 29.93 | 8 | N | |||
| Wilmington (ASOS) | DE | 2026-05-02 10:51 | ASOS | 55 | 39 | 55 | 29.93 | 12 | NW | |||
| Wilmington (ASOS) | DE | 2026-05-02 09:25 | ASOS | 52 | 39 | 62 | 29.93 | 13 | N | |||
| Wilmington (ASOS) | DE | 2026-05-02 11:35 | ASOS | 57 | 35 | 44 | 29.94 | 12 | N | |||
| Wilmington (ASOS) | DE | 2026-05-02 12:00 | ASOS | 57 | 34 | 41 | 29.94 | 10 | N | |||
| Wilmington (ASOS) | DE | 2026-05-02 11:55 | ASOS | 57 | 34 | 41 | 29.94 | 7 | NNW | |||
| Wilmington (ASOS) | DE | 2026-05-02 11:51 | ASOS | 58 | 35 | 42 | 29.94 | 9 | NNW | |||
| Wilmington (ASOS) | DE | 2026-05-02 11:50 | ASOS | 57 | 35 | 44 | 29.94 | 9 | NNW | |||
| Wilmington (ASOS) | DE | 2026-05-02 11:45 | ASOS | 57 | 34 | 41 | 29.94 | 9 | N | |||
| Wilmington (ASOS) | DE | 2026-05-02 11:40 | ASOS | 57 | 34 | 41 | 29.94 | 10 | NNE | |||
| Wilmington (ASOS) | DE | 2026-05-02 11:30 | ASOS | 57 | 35 | 44 | 29.93 | 9 | NNW | |||
| Wilmington (ASOS) | DE | 2026-05-02 10:55 | ASOS | 55 | 37 | 51 | 29.93 | 7 | NNW | |||
| Wilmington (ASOS) | DE | 2026-05-02 11:25 | ASOS | 55 | 35 | 47 | 29.93 | 13 | NNW | |||
| Wilmington (ASOS) | DE | 2026-05-02 11:20 | ASOS | 57 | 37 | 47 | 29.93 | 13 | N | |||
| Wilmington (ASOS) | DE | 2026-05-02 11:15 | ASOS | 55 | 37 | 51 | 29.93 | 8 | N | |||
| Wilmington (ASOS) | DE | 2026-05-02 11:10 | ASOS | 55 | 37 | 51 | 29.93 | 7 | N | |||
| Wilmington (ASOS) | DE | 2026-05-02 11:05 | ASOS | 55 | 37 | 51 | 29.93 | 12 | NW | |||
| Wilmington (ASOS) | DE | 2026-05-02 11:00 | ASOS | 55 | 37 | 51 | 29.93 | 9 | NNW | |||
| Wilmington (ASOS) | DE | 2026-05-02 09:30 | ASOS | 54 | 39 | 58 | 29.93 | 12 | NNW | |||
| Wilmington (ASOS) | DE | 2026-05-02 09:20 | ASOS | 52 | 39 | 62 | 29.93 | 8 | NNW | |||
| Wilmington (ASOS) | DE | 2026-05-02 12:10 | ASOS | 59 | 34 | 39 | 29.93 | 9 | NNW | |||
| Wilmington (ASOS) | DE | 2026-05-02 07:15 | ASOS | 52 | 41 | 66 | 29.93 | 13 | NW | |||
| Wilmington (ASOS) | DE | 2026-05-02 07:45 | ASOS | 52 | 41 | 66 | 29.93 | 12 | WNW | |||
| Wilmington (ASOS) | DE | 2026-05-02 07:40 | ASOS | 52 | 41 | 66 | 29.93 | 13 | NW | |||
| Wilmington (ASOS) | DE | 2026-05-02 07:35 | ASOS | 52 | 41 | 66 | 29.93 | 12 | NW | |||
| Wilmington (ASOS) | DE | 2026-05-02 07:30 | ASOS | 52 | 41 | 66 | 29.93 | 12 | NW | |||
| Wilmington (ASOS) | DE | 2026-05-02 07:25 | ASOS | 52 | 41 | 66 | 29.93 | 13 | WNW | |||
| Wilmington (ASOS) | DE | 2026-05-02 07:20 | ASOS | 52 | 41 | 66 | 29.93 | 12 | NW | |||
| Wilmington (ASOS) | DE | 2026-05-02 07:10 | ASOS | 52 | 41 | 66 | 29.93 | 10 | WNW | |||
| Wilmington (ASOS) | DE | 2026-05-02 07:51 | ASOS | 51 | 40 | 65 | 29.93 | 10 | NW | |||
| Wilmington (ASOS) | DE | 2026-05-02 07:05 | ASOS | 50 | 41 | 71 | 29.93 | 8 | NW | |||
| Wilmington (ASOS) | DE | 2026-05-02 07:00 | ASOS | 50 | 41 | 71 | 29.92 | 12 | NW | |||
| Wilmington (ASOS) | DE | 2026-05-02 06:51 | ASOS | 50 | 41 | 71 | 29.92 | 15 | NW | |||
| Wilmington (ASOS) | DE | 2026-05-02 06:50 | ASOS | 50 | 41 | 71 | 29.92 | 15 | NW | |||
| Wilmington (ASOS) | DE | 2026-05-02 06:45 | ASOS | 50 | 43 | 76 | 29.92 | 9 | NW | |||
| Wilmington (ASOS) | DE | 2026-05-02 06:40 | ASOS | 52 | 43 | 71 | 29.92 | 13 | WNW | |||
| Wilmington (ASOS) | DE | 2026-05-02 07:50 | ASOS | 52 | 39 | 62 | 29.93 | 12 | NW | |||
| Wilmington (ASOS) | DE | 2026-05-02 07:55 | ASOS | 52 | 39 | 62 | 29.93 | 9 | NW | |||
| Wilmington (ASOS) | DE | 2026-05-02 09:15 | ASOS | 52 | 39 | 62 | 29.93 | 12 | NW | |||
| Wilmington (ASOS) | DE | 2026-05-02 08:45 | ASOS | 54 | 39 | 58 | 29.94 | 13 | NW | |||
| Wilmington (ASOS) | DE | 2026-05-02 09:10 | ASOS | 52 | 39 | 62 | 29.93 | 12 | NW | |||
| Wilmington (ASOS) | DE | 2026-05-02 09:05 | ASOS | 52 | 39 | 62 | 29.94 | 14 | NW | |||
| Wilmington (ASOS) | DE | 2026-05-02 09:00 | ASOS | 52 | 39 | 62 | 29.94 | 12 | NW | |||
| Wilmington (ASOS) | DE | 2026-05-02 08:55 | ASOS | 52 | 39 | 62 | 29.94 | 12 | NW | |||
| Wilmington (ASOS) | DE | 2026-05-02 08:51 | ASOS | 53 | 41 | 63 | 29.94 | 13 | NW | |||
| Wilmington (ASOS) | DE | 2026-05-02 08:50 | ASOS | 54 | 41 | 62 | 29.94 | 13 | NW | |||
| Wilmington (ASOS) | DE | 2026-05-02 08:40 | ASOS | 52 | 39 | 62 | 29.94 | 14 | NW | |||
| Wilmington (ASOS) | DE | 2026-05-02 08:00 | ASOS | 52 | 39 | 62 | 29.93 | 8 | WNW | |||
| Wilmington (ASOS) | DE | 2026-05-02 08:35 | ASOS | 52 | 39 | 62 | 29.94 | 14 | WNW | |||
| Wilmington (ASOS) | DE | 2026-05-02 08:30 | ASOS | 52 | 39 | 62 | 29.93 | 14 | NW | |||
| Wilmington (ASOS) | DE | 2026-05-02 08:25 | ASOS | 54 | 39 | 58 | 29.93 | 12 | NW | |||
| Wilmington (ASOS) | DE | 2026-05-02 08:20 | ASOS | 52 | 39 | 62 | 29.93 | 12 | WNW | |||
| Wilmington (ASOS) | DE | 2026-05-02 08:15 | ASOS | 52 | 39 | 62 | 29.93 | 10 | WNW | |||
| Wilmington (ASOS) | DE | 2026-05-02 08:10 | ASOS | 52 | 39 | 62 | 29.93 | 12 | WNW | |||
| Wilmington (ASOS) | DE | 2026-05-02 08:05 | ASOS | 52 | 39 | 62 | 29.93 | 8 | NW | |||
| Wilmington (ASOS) | DE | 2026-05-02 12:05 | ASOS | 59 | 34 | 39 | 29.93 | 12 | NNW | |||
| Wilmington (ASOS) | DE | 2026-05-02 12:15 | ASOS | 61 | 32 | 34 | 29.93 | 8 | NNW | |||
| Wilmington (ASOS) | DE | 2026-05-02 06:30 | ASOS | 50 | 43 | 76 | 29.91 | 9 | WNW | |||
| Wilmington (ASOS) | DE | 2026-05-02 16:00 | ASOS | 63 | 30 | 29 | 29.86 | 13 | NW | |||
| Wilmington (ASOS) | DE | 2026-05-02 16:35 | ASOS | 61 | 28 | 29 | 29.86 | 15 | NW | |||
| Wilmington (ASOS) | DE | 2026-05-02 16:30 | ASOS | 61 | 30 | 31 | 29.85 | 7 | NNW | |||
| Wilmington (ASOS) | DE | 2026-05-02 16:25 | ASOS | 61 | 28 | 29 | 29.85 | 12 | NW | |||
| Wilmington (ASOS) | DE | 2026-05-02 16:20 | ASOS | 61 | 28 | 29 | 29.85 | 13 | NNW | |||
| Wilmington (ASOS) | DE | 2026-05-02 16:15 | ASOS | 63 | 28 | 27 | 29.85 | 13 | NNW | |||
| Wilmington (ASOS) | DE | 2026-05-02 16:05 | ASOS | 63 | 30 | 29 | 29.86 | 10 | NNW | |||
| Wilmington (ASOS) | DE | 2026-05-02 15:55 | ASOS | 63 | 30 | 29 | 29.86 | 13 | NW | |||
| Wilmington (ASOS) | DE | 2026-05-02 16:45 | ASOS | 61 | 30 | 31 | 29.85 | 13 | WNW | |||
| Wilmington (ASOS) | DE | 2026-05-02 15:51 | ASOS | 63 | 31 | 30 | 29.86 | 14 | NNW | |||
| Wilmington (ASOS) | DE | 2026-05-02 15:50 | ASOS | 63 | 30 | 29 | 29.86 | 13 | NW | |||
| Wilmington (ASOS) | DE | 2026-05-02 15:45 | ASOS | 63 | 30 | 29 | 29.87 | 9 | WNW | |||
| Wilmington (ASOS) | DE | 2026-05-02 15:40 | ASOS | 63 | 30 | 29 | 29.87 | 15 | WNW | |||
| Wilmington (ASOS) | DE | 2026-05-02 15:35 | ASOS | 63 | 30 | 29 | 29.87 | 13 | NW | |||
| Wilmington (ASOS) | DE | 2026-05-02 15:30 | ASOS | 63 | 30 | 29 | 29.87 | 14 | NW | |||
| Wilmington (ASOS) | DE | 2026-05-02 16:40 | ASOS | 61 | 28 | 29 | 29.85 | 15 | WNW | |||
| Wilmington (ASOS) | DE | 2026-05-02 16:50 | ASOS | 61 | 30 | 31 | 29.86 | 13 | NW | |||
| Wilmington (ASOS) | DE | 2026-05-02 15:20 | ASOS | 61 | 30 | 31 | 29.88 | 12 | NW | |||
| Wilmington (ASOS) | DE | 2026-05-02 17:35 | ASOS | 61 | 28 | 29 | 29.86 | 14 | NW | |||
| Wilmington (ASOS) | DE | 2026-05-02 18:00 | ASOS | 61 | 28 | 29 | 29.87 | 12 | NW | |||
| Wilmington (ASOS) | DE | 2026-05-02 17:55 | ASOS | 61 | 28 | 29 | 29.87 | 12 | NW | |||
| Wilmington (ASOS) | DE | 2026-05-02 17:51 | ASOS | 59 | 28 | 31 | 29.87 | 10 | NW | |||
| Wilmington (ASOS) | DE | 2026-05-02 17:50 | ASOS | 59 | 28 | 31 | 29.87 | 12 | NW | |||
| Wilmington (ASOS) | DE | 2026-05-02 17:45 | ASOS | 59 | 28 | 31 | 29.87 | 12 | NW | |||
| Wilmington (ASOS) | DE | 2026-05-02 17:40 | ASOS | 61 | 26 | 27 | 29.87 | 12 | NW | |||
| Wilmington (ASOS) | DE | 2026-05-02 17:30 | ASOS | 61 | 28 | 29 | 29.86 | 8 | NNW | |||
| Wilmington (ASOS) | DE | 2026-05-02 16:51 | ASOS | 60 | 30 | 32 | 29.86 | 13 | NW | |||
| Wilmington (ASOS) | DE | 2026-05-02 17:25 | ASOS | 61 | 26 | 27 | 29.86 | 6 | N | |||
| Wilmington (ASOS) | DE | 2026-05-02 17:20 | ASOS | 61 | 28 | 29 | 29.86 | 7 | NW | |||
| Wilmington (ASOS) | DE | 2026-05-02 17:15 | ASOS | 63 | 28 | 27 | 29.86 | 7 | NNW | |||
| Wilmington (ASOS) | DE | 2026-05-02 17:10 | ASOS | 61 | 30 | 31 | 29.86 | 12 | NW | |||
| Wilmington (ASOS) | DE | 2026-05-02 17:05 | ASOS | 61 | 28 | 29 | 29.86 | 12 | WNW | |||
| Wilmington (ASOS) | DE | 2026-05-02 17:00 | ASOS | 61 | 30 | 31 | 29.86 | 12 | NW | |||
| Wilmington (ASOS) | DE | 2026-05-02 16:55 | ASOS | 61 | 30 | 31 | 29.86 | 12 | NNW | |||
| Wilmington (ASOS) | DE | 2026-05-02 15:25 | ASOS | 63 | 30 | 29 | 29.87 | 8 | NW | |||
| Wilmington (ASOS) | DE | 2026-05-02 15:15 | ASOS | 63 | 30 | 29 | 29.88 | 13 | NW | |||
| Wilmington (ASOS) | DE | 2026-05-02 12:20 | ASOS | 61 | 34 | 36 | 29.92 | 12 | NNE | |||
| Wilmington (ASOS) | DE | 2026-05-02 12:55 | ASOS | 61 | 30 | 31 | 29.92 | 8 | N | |||
| Wilmington (ASOS) | DE | 2026-05-02 13:30 | ASOS | 61 | 32 | 34 | 29.91 | 12 | NNW | |||
| Wilmington (ASOS) | DE | 2026-05-02 13:25 | ASOS | 61 | 30 | 31 | 29.91 | 6 | NNW | |||
| Wilmington (ASOS) | DE | 2026-05-02 13:20 | ASOS | 59 | 30 | 33 | 29.92 | 8 | N | |||
| Wilmington (ASOS) | DE | 2026-05-02 13:15 | ASOS | 59 | 28 | 31 | 29.92 | 9 | N | |||
| Wilmington (ASOS) | DE | 2026-05-02 13:05 | ASOS | 61 | 30 | 31 | 29.92 | 10 | NNW | |||
| Wilmington (ASOS) | DE | 2026-05-02 13:00 | ASOS | 61 | 30 | 31 | 29.92 | 10 | NNW | |||
| Wilmington (ASOS) | DE | 2026-05-02 12:51 | ASOS | 62 | 31 | 31 | 29.92 | 14 | NNW | |||
| Wilmington (ASOS) | DE | 2026-05-02 13:45 | ASOS | 61 | 30 | 31 | 29.91 | 10 | NW | |||
| Wilmington (ASOS) | DE | 2026-05-02 12:50 | ASOS | 63 | 30 | 29 | 29.92 | 15 | NNW | |||
| Wilmington (ASOS) | DE | 2026-05-02 12:45 | ASOS | 63 | 32 | 32 | 29.92 | 10 | N | |||
| Wilmington (ASOS) | DE | 2026-05-02 12:40 | ASOS | 61 | 30 | 31 | 29.92 | 15 | NNW | |||
| Wilmington (ASOS) | DE | 2026-05-02 12:35 | ASOS | 59 | 30 | 33 | 29.92 | 9 | NNW | |||
| Wilmington (ASOS) | DE | 2026-05-02 12:30 | ASOS | 61 | 32 | 34 | 29.92 | 9 | NNW | |||
| Wilmington (ASOS) | DE | 2026-05-02 12:25 | ASOS | 61 | 32 | 34 | 29.93 | 10 | N | |||
| Wilmington (ASOS) | DE | 2026-05-02 13:40 | ASOS | 61 | 30 | 31 | 29.91 | 8 | NNW | |||
| Wilmington (ASOS) | DE | 2026-05-02 13:50 | ASOS | 61 | 32 | 34 | 29.91 | 10 | NNW | |||
| Wilmington (ASOS) | DE | 2026-05-02 15:10 | ASOS | 64 | 30 | 28 | 29.88 | 14 | NW | |||
| Wilmington (ASOS) | DE | 2026-05-02 14:40 | ASOS | 63 | 30 | 29 | 29.90 | 9 | NNW | |||
| Wilmington (ASOS) | DE | 2026-05-02 15:05 | ASOS | 63 | 32 | 32 | 29.88 | 13 | WNW | |||
| Wilmington (ASOS) | DE | 2026-05-02 15:00 | ASOS | 63 | 32 | 32 | 29.89 | 12 | WNW | |||
| Wilmington (ASOS) | DE | 2026-05-02 14:55 | ASOS | 63 | 32 | 32 | 29.89 | 10 | NNW | |||
| Wilmington (ASOS) | DE | 2026-05-02 14:51 | ASOS | 62 | 31 | 31 | 29.89 | 10 | NW | |||
| Wilmington (ASOS) | DE | 2026-05-02 14:50 | ASOS | 63 | 30 | 29 | 29.89 | 8 | NW | |||
| Wilmington (ASOS) | DE | 2026-05-02 14:45 | ASOS | 63 | 28 | 27 | 29.90 | 8 | N | |||
| Wilmington (ASOS) | DE | 2026-05-02 14:35 | ASOS | 61 | 30 | 31 | 29.90 | 10 | NNW | |||
| Wilmington (ASOS) | DE | 2026-05-02 13:51 | ASOS | 61 | 32 | 33 | 29.91 | 10 | NNW | |||
| Wilmington (ASOS) | DE | 2026-05-02 14:30 | ASOS | 61 | 32 | 34 | 29.90 | 10 | NNW | |||
| Wilmington (ASOS) | DE | 2026-05-02 14:25 | ASOS | 63 | 30 | 29 | 29.90 | 12 | NNE | |||
| Wilmington (ASOS) | DE | 2026-05-02 14:20 | ASOS | 63 | 32 | 32 | 29.91 | 8 | NW | |||
| Wilmington (ASOS) | DE | 2026-05-02 14:15 | ASOS | 63 | 30 | 29 | 29.91 | 10 | WNW | |||
| Wilmington (ASOS) | DE | 2026-05-02 14:10 | ASOS | 63 | 30 | 29 | 29.91 | 5 | N | |||
| Wilmington (ASOS) | DE | 2026-05-02 14:05 | ASOS | 61 | 32 | 34 | 29.91 | 8 | NNW | |||
| Wilmington (ASOS) | DE | 2026-05-02 13:55 | ASOS | 61 | 32 | 34 | 29.91 | 9 | N | |||
| Wilmington (ASOS) | DE | 2026-05-02 06:35 | ASOS | 50 | 43 | 76 | 29.91 | 12 | WNW | |||
| Wilmington (ASOS) | DE | 2026-05-02 06:25 | ASOS | 50 | 43 | 76 | 29.91 | 8 | WNW | |||
| Wilmington (ASOS) | DE | 2026-05-01 18:25 | ASOS | 63 | 34 | 34 | 29.87 | 12 | SSW | |||
| Wilmington (ASOS) | DE | 2026-05-01 22:10 | ASOS | 54 | 45 | 71 | 29.90 | 6 | SE | |||
| Wilmington (ASOS) | DE | 2026-05-01 22:40 | ASOS | 54 | 45 | 71 | 29.89 | 6 | ESE | |||
| Wilmington (ASOS) | DE | 2026-05-01 22:35 | ASOS | 54 | 45 | 71 | 29.89 | 6 | ESE | |||
| Wilmington (ASOS) | DE | 2026-05-01 22:30 | ASOS | 54 | 45 | 71 | 29.89 | 6 | E | |||
| Wilmington (ASOS) | DE | 2026-05-01 22:25 | ASOS | 54 | 45 | 71 | 29.90 | 5 | ESE | |||
| Wilmington (ASOS) | DE | 2026-05-01 22:20 | ASOS | 54 | 45 | 71 | 29.91 | 3 | ESE | |||
| Wilmington (ASOS) | DE | 2026-05-01 22:15 | ASOS | 54 | 45 | 71 | 29.90 | 6 | ESE | |||
| Wilmington (ASOS) | DE | 2026-05-01 22:05 | ASOS | 54 | 45 | 71 | 29.90 | 6 | SE | |||
| Wilmington (ASOS) | DE | 2026-05-01 22:50 | ASOS | 54 | 45 | 71 | 29.89 | 6 | ESE | |||
| Wilmington (ASOS) | DE | 2026-05-01 22:00 | ASOS | 54 | 45 | 71 | 29.90 | 8 | SSE | |||
| Wilmington (ASOS) | DE | 2026-05-01 21:51 | ASOS | 54 | 45 | 72 | 29.90 | 8 | SSE | |||
| Wilmington (ASOS) | DE | 2026-05-01 21:50 | ASOS | 54 | 45 | 71 | 29.90 | 8 | SSE | |||
| Wilmington (ASOS) | DE | 2026-05-01 21:45 | ASOS | 54 | 45 | 71 | 29.90 | 8 | SSE | |||
| Wilmington (ASOS) | DE | 2026-05-01 21:40 | ASOS | 54 | 45 | 71 | 29.90 | 7 | SSE | |||
| Wilmington (ASOS) | DE | 2026-05-01 21:35 | ASOS | 54 | 45 | 71 | 29.89 | 9 | SE | |||
| Wilmington (ASOS) | DE | 2026-05-01 22:45 | ASOS | 54 | 45 | 71 | 29.89 | 6 | ESE | |||
| Wilmington (ASOS) | DE | 2026-05-01 22:51 | ASOS | 53 | 45 | 74 | 29.89 | 6 | ESE | |||
| Wilmington (ASOS) | DE | 2026-05-01 21:25 | ASOS | 54 | 45 | 71 | 29.89 | 10 | SE | |||
| Wilmington (ASOS) | DE | 2026-05-01 23:50 | ASOS | 55 | 41 | 58 | 29.90 | 5 | SSW | |||
| Wilmington (ASOS) | DE | 2026-05-02 00:15 | ASOS | 55 | 39 | 54 | 29.91 | 7 | SW | |||
| Wilmington (ASOS) | DE | 2026-05-02 00:10 | ASOS | 55 | 39 | 54 | 29.90 | 7 | SSW | |||
| Wilmington (ASOS) | DE | 2026-05-02 00:05 | ASOS | 55 | 39 | 54 | 29.90 | 9 | SSW | |||
| Wilmington (ASOS) | DE | 2026-05-02 00:00 | ASOS | 55 | 39 | 54 | 29.90 | 6 | SSW | |||
| Wilmington (ASOS) | DE | 2026-05-01 23:55 | ASOS | 55 | 41 | 58 | 29.90 | 6 | SSW | |||
| Wilmington (ASOS) | DE | 2026-05-01 23:51 | ASOS | 55 | 41 | 59 | 29.90 | 6 | S | |||
| Wilmington (ASOS) | DE | 2026-05-01 23:45 | ASOS | 55 | 43 | 62 | 29.90 | 5 | SW | |||
| Wilmington (ASOS) | DE | 2026-05-01 22:55 | ASOS | 54 | 46 | 77 | 29.89 | 3 | ESE | |||
| Wilmington (ASOS) | DE | 2026-05-01 23:40 | ASOS | 55 | 44 | 67 | 29.90 | 7 | SSW | |||
| Wilmington (ASOS) | DE | 2026-05-01 23:35 | ASOS | 55 | 44 | 67 | 29.89 | 3 | S | |||
| Wilmington (ASOS) | DE | 2026-05-01 23:30 | ASOS | 55 | 46 | 72 | 29.89 | 3 | S | |||
| Wilmington (ASOS) | DE | 2026-05-01 23:25 | ASOS | 54 | 46 | 77 | 29.89 | 0 | N | |||
| Wilmington (ASOS) | DE | 2026-05-01 23:10 | ASOS | 54 | 46 | 77 | 29.89 | 0 | N | |||
| Wilmington (ASOS) | DE | 2026-05-01 23:05 | ASOS | 54 | 46 | 77 | 29.89 | 0 | N | |||
| Wilmington (ASOS) | DE | 2026-05-01 23:00 | ASOS | 54 | 46 | 77 | 29.89 | 3 | SE | |||
| Wilmington (ASOS) | DE | 2026-05-01 21:30 | ASOS | 54 | 45 | 71 | 29.88 | 10 | SE | |||
| Wilmington (ASOS) | DE | 2026-05-01 21:20 | ASOS | 54 | 45 | 71 | 29.89 | 8 | SE | |||
| Wilmington (ASOS) | DE | 2026-05-02 00:25 | ASOS | 55 | 39 | 54 | 29.90 | 7 | SSW | |||
| Wilmington (ASOS) | DE | 2026-05-01 19:00 | ASOS | 59 | 43 | 55 | 29.87 | 15 | S | |||
| Wilmington (ASOS) | DE | 2026-05-01 19:40 | ASOS | 57 | 43 | 59 | 29.88 | 12 | SSE | |||
| Wilmington (ASOS) | DE | 2026-05-01 19:35 | ASOS | 57 | 43 | 59 | 29.88 | 10 | S | |||
| Wilmington (ASOS) | DE | 2026-05-01 19:30 | ASOS | 57 | 43 | 59 | 29.88 | 13 | S | |||
| Wilmington (ASOS) | DE | 2026-05-01 19:25 | ASOS | 57 | 43 | 59 | 29.88 | 13 | S | |||
| Wilmington (ASOS) | DE | 2026-05-01 19:20 | ASOS | 57 | 43 | 59 | 29.87 | 14 | S | |||
| Wilmington (ASOS) | DE | 2026-05-01 19:05 | ASOS | 59 | 43 | 55 | 29.87 | 12 | S | |||
| Wilmington (ASOS) | DE | 2026-05-01 18:55 | ASOS | 59 | 43 | 55 | 29.87 | 14 | S | |||
| Wilmington (ASOS) | DE | 2026-05-01 19:50 | ASOS | 57 | 43 | 59 | 29.88 | 13 | SSE | |||
| Wilmington (ASOS) | DE | 2026-05-01 18:51 | ASOS | 59 | 43 | 55 | 29.87 | 15 | SSE | |||
| Wilmington (ASOS) | DE | 2026-05-01 18:50 | ASOS | 59 | 43 | 55 | 29.86 | 15 | SSE | |||
| Wilmington (ASOS) | DE | 2026-05-01 18:45 | ASOS | 61 | 43 | 51 | 29.87 | 14 | S | |||
| Wilmington (ASOS) | DE | 2026-05-01 18:40 | ASOS | 61 | 43 | 51 | 29.87 | 15 | S | |||
| Wilmington (ASOS) | DE | 2026-05-01 18:35 | ASOS | 61 | 43 | 51 | 29.86 | 14 | SSE | |||
| Wilmington (ASOS) | DE | 2026-05-01 18:30 | ASOS | 63 | 39 | 42 | 29.86 | 16 | S | |||
| Wilmington (ASOS) | DE | 2026-05-01 19:45 | ASOS | 55 | 43 | 62 | 29.88 | 10 | SSE | |||
| Wilmington (ASOS) | DE | 2026-05-01 19:51 | ASOS | 57 | 43 | 59 | 29.87 | 13 | SSE | |||
| Wilmington (ASOS) | DE | 2026-05-01 21:15 | ASOS | 54 | 45 | 71 | 29.89 | 7 | SE | |||
| Wilmington (ASOS) | DE | 2026-05-01 20:45 | ASOS | 54 | 45 | 71 | 29.89 | 9 | SSE | |||
| Wilmington (ASOS) | DE | 2026-05-01 21:10 | ASOS | 54 | 45 | 71 | 29.90 | 7 | SE | |||
| Wilmington (ASOS) | DE | 2026-05-01 21:05 | ASOS | 54 | 45 | 71 | 29.89 | 8 | SE | |||
| Wilmington (ASOS) | DE | 2026-05-01 21:00 | ASOS | 54 | 45 | 71 | 29.89 | 8 | SE | |||
| Wilmington (ASOS) | DE | 2026-05-01 20:55 | ASOS | 55 | 44 | 67 | 29.89 | 8 | SE | |||
| Wilmington (ASOS) | DE | 2026-05-01 20:51 | ASOS | 55 | 45 | 69 | 29.89 | 9 | SSE | |||
| Wilmington (ASOS) | DE | 2026-05-01 20:50 | ASOS | 55 | 44 | 67 | 29.89 | 10 | SSE | |||
| Wilmington (ASOS) | DE | 2026-05-01 20:40 | ASOS | 55 | 44 | 67 | 29.89 | 9 | SSE | |||
| Wilmington (ASOS) | DE | 2026-05-01 20:00 | ASOS | 55 | 44 | 67 | 29.87 | 12 | SSE | |||
| Wilmington (ASOS) | DE | 2026-05-01 20:35 | ASOS | 55 | 44 | 67 | 29.88 | 8 | SSE | |||
| Wilmington (ASOS) | DE | 2026-05-01 20:30 | ASOS | 55 | 44 | 67 | 29.88 | 12 | SSE | |||
| Wilmington (ASOS) | DE | 2026-05-01 20:25 | ASOS | 55 | 44 | 67 | 29.88 | 13 | SSE | |||
| Wilmington (ASOS) | DE | 2026-05-01 20:20 | ASOS | 55 | 44 | 67 | 29.87 | 14 | SSE | |||
| Wilmington (ASOS) | DE | 2026-05-01 20:15 | ASOS | 55 | 44 | 67 | 29.88 | 13 | SSE | |||
| Wilmington (ASOS) | DE | 2026-05-01 20:10 | ASOS | 55 | 44 | 67 | 29.87 | 14 | S | |||
| Wilmington (ASOS) | DE | 2026-05-01 20:05 | ASOS | 55 | 44 | 67 | 29.88 | 13 | SSE | |||
| Wilmington (ASOS) | DE | 2026-05-02 00:20 | ASOS | 55 | 39 | 54 | 29.91 | 8 | SSW | |||
| Wilmington (ASOS) | DE | 2026-05-02 00:30 | ASOS | 55 | 39 | 54 | 29.90 | 6 | SSW | |||
| Wilmington (ASOS) | DE | 2026-05-02 06:20 | ASOS | 50 | 43 | 76 | 29.90 | 8 | WNW | |||
| Wilmington (ASOS) | DE | 2026-05-02 04:10 | ASOS | 52 | 43 | 71 | 29.89 | 5 | WNW | |||
| Wilmington (ASOS) | DE | 2026-05-02 04:40 | ASOS | 52 | 43 | 71 | 29.90 | 3 | WSW | |||
| Wilmington (ASOS) | DE | 2026-05-02 04:35 | ASOS | 54 | 43 | 67 | 29.90 | 3 | WSW | |||
| Wilmington (ASOS) | DE | 2026-05-02 04:30 | ASOS | 54 | 43 | 67 | 29.89 | 3 | WSW | |||
| Wilmington (ASOS) | DE | 2026-05-02 04:25 | ASOS | 54 | 43 | 67 | 29.90 | 0 | N | |||
| Wilmington (ASOS) | DE | 2026-05-02 04:20 | ASOS | 54 | 43 | 67 | 29.90 | 0 | N | |||
| Wilmington (ASOS) | DE | 2026-05-02 04:15 | ASOS | 52 | 43 | 71 | 29.89 | 3 | W | |||
| Wilmington (ASOS) | DE | 2026-05-02 04:05 | ASOS | 52 | 43 | 71 | 29.89 | 5 | NW | |||
| Wilmington (ASOS) | DE | 2026-05-02 04:50 | ASOS | 52 | 45 | 76 | 29.90 | 5 | W | |||
| Wilmington (ASOS) | DE | 2026-05-02 04:00 | ASOS | 52 | 43 | 71 | 29.88 | 3 | NW | |||
| Wilmington (ASOS) | DE | 2026-05-02 03:51 | ASOS | 53 | 42 | 66 | 29.89 | 0 | N | |||
| Wilmington (ASOS) | DE | 2026-05-02 03:50 | ASOS | 54 | 43 | 67 | 29.89 | 3 | WNW | |||
| Wilmington (ASOS) | DE | 2026-05-02 03:45 | ASOS | 52 | 43 | 71 | 29.89 | 0 | N | |||
| Wilmington (ASOS) | DE | 2026-05-02 03:40 | ASOS | 52 | 43 | 71 | 29.89 | 5 | NW | |||
| Wilmington (ASOS) | DE | 2026-05-02 03:35 | ASOS | 54 | 43 | 67 | 29.89 | 5 | NW | |||
| Wilmington (ASOS) | DE | 2026-05-02 04:45 | ASOS | 52 | 43 | 71 | 29.90 | 5 | W | |||
| Wilmington (ASOS) | DE | 2026-05-02 04:51 | ASOS | 52 | 44 | 74 | 29.90 | 5 | W | |||
| Wilmington (ASOS) | DE | 2026-05-02 03:25 | ASOS | 54 | 43 | 67 | 29.89 | 0 | N | |||
| Wilmington (ASOS) | DE | 2026-05-02 05:45 | ASOS | 52 | 43 | 71 | 29.89 | 9 | NW | |||
| Wilmington (ASOS) | DE | 2026-05-02 06:15 | ASOS | 50 | 43 | 76 | 29.90 | 8 | WNW | |||
| Wilmington (ASOS) | DE | 2026-05-02 06:05 | ASOS | 52 | 43 | 71 | 29.90 | 9 | WNW | |||
| Wilmington (ASOS) | DE | 2026-05-02 06:00 | ASOS | 50 | 43 | 76 | 29.90 | 7 | WNW | |||
| Wilmington (ASOS) | DE | 2026-05-02 05:55 | ASOS | 50 | 43 | 76 | 29.90 | 6 | WNW | |||
| Wilmington (ASOS) | DE | 2026-05-02 05:51 | ASOS | 51 | 43 | 74 | 29.89 | 8 | WNW | |||
| Wilmington (ASOS) | DE | 2026-05-02 05:50 | ASOS | 52 | 43 | 71 | 29.89 | 8 | WNW | |||
| Wilmington (ASOS) | DE | 2026-05-02 05:40 | ASOS | 52 | 43 | 71 | 29.89 | 9 | WNW | |||
| Wilmington (ASOS) | DE | 2026-05-02 04:55 | ASOS | 52 | 45 | 76 | 29.90 | 3 | WNW | |||
| Wilmington (ASOS) | DE | 2026-05-02 05:35 | ASOS | 52 | 43 | 71 | 29.89 | 8 | WNW | |||
| Wilmington (ASOS) | DE | 2026-05-02 05:30 | ASOS | 52 | 43 | 71 | 29.89 | 8 | NW | |||
| Wilmington (ASOS) | DE | 2026-05-02 05:25 | ASOS | 52 | 43 | 71 | 29.89 | 7 | NW | |||
| Wilmington (ASOS) | DE | 2026-05-02 05:20 | ASOS | 52 | 45 | 76 | 29.90 | 8 | NW | |||
| Wilmington (ASOS) | DE | 2026-05-02 05:15 | ASOS | 52 | 45 | 76 | 29.90 | 8 | WNW | |||
| Wilmington (ASOS) | DE | 2026-05-02 05:10 | ASOS | 52 | 45 | 76 | 29.90 | 7 | NW | |||
| Wilmington (ASOS) | DE | 2026-05-02 05:05 | ASOS | 52 | 45 | 76 | 29.90 | 6 | WNW | |||
| Wilmington (ASOS) | DE | 2026-05-02 03:30 | ASOS | 54 | 43 | 67 | 29.89 | 0 | N | |||
| Wilmington (ASOS) | DE | 2026-05-02 03:20 | ASOS | 54 | 43 | 67 | 29.89 | 0 | N | |||
| Wilmington (ASOS) | DE | 2026-05-02 00:35 | ASOS | 55 | 39 | 54 | 29.91 | 5 | SW | |||
| Wilmington (ASOS) | DE | 2026-05-02 01:15 | ASOS | 54 | 39 | 58 | 29.92 | 7 | SW | |||
| Wilmington (ASOS) | DE | 2026-05-02 01:45 | ASOS | 54 | 39 | 58 | 29.90 | 7 | S | |||
| Wilmington (ASOS) | DE | 2026-05-02 01:40 | ASOS | 54 | 39 | 58 | 29.90 | 7 | S | |||
| Wilmington (ASOS) | DE | 2026-05-02 01:35 | ASOS | 54 | 39 | 58 | 29.90 | 7 | S | |||
| Wilmington (ASOS) | DE | 2026-05-02 01:30 | ASOS | 54 | 39 | 58 | 29.91 | 8 | S | |||
| Wilmington (ASOS) | DE | 2026-05-02 01:25 | ASOS | 54 | 39 | 58 | 29.91 | 8 | SSW | |||
| Wilmington (ASOS) | DE | 2026-05-02 01:20 | ASOS | 54 | 39 | 58 | 29.91 | 7 | S | |||
| Wilmington (ASOS) | DE | 2026-05-02 01:10 | ASOS | 54 | 39 | 58 | 29.92 | 7 | SW | |||
| Wilmington (ASOS) | DE | 2026-05-02 01:51 | ASOS | 54 | 40 | 59 | 29.90 | 8 | S | |||
| Wilmington (ASOS) | DE | 2026-05-02 01:05 | ASOS | 54 | 39 | 58 | 29.91 | 6 | SW | |||
| Wilmington (ASOS) | DE | 2026-05-02 01:00 | ASOS | 54 | 39 | 58 | 29.91 | 5 | SSW | |||
| Wilmington (ASOS) | DE | 2026-05-02 00:51 | ASOS | 55 | 40 | 57 | 29.90 | 6 | S | |||
| Wilmington (ASOS) | DE | 2026-05-02 00:50 | ASOS | 55 | 39 | 54 | 29.90 | 5 | SSW | |||
| Wilmington (ASOS) | DE | 2026-05-02 00:45 | ASOS | 55 | 39 | 54 | 29.90 | 0 | N | |||
| Wilmington (ASOS) | DE | 2026-05-02 00:40 | ASOS | 55 | 39 | 54 | 29.90 | 3 | SSW | |||
| Wilmington (ASOS) | DE | 2026-05-02 01:50 | ASOS | 54 | 39 | 58 | 29.90 | 8 | S | |||
| Wilmington (ASOS) | DE | 2026-05-02 01:55 | ASOS | 54 | 39 | 58 | 29.90 | 7 | S | |||
| Wilmington (ASOS) | DE | 2026-05-02 03:15 | ASOS | 54 | 43 | 67 | 29.89 | 0 | N | |||
| Wilmington (ASOS) | DE | 2026-05-02 02:45 | ASOS | 54 | 41 | 62 | 29.90 | 6 | WSW | |||
| Wilmington (ASOS) | DE | 2026-05-02 03:10 | ASOS | 54 | 43 | 67 | 29.89 | 0 | N | |||
| Wilmington (ASOS) | DE | 2026-05-02 03:05 | ASOS | 54 | 43 | 67 | 29.89 | 3 | SW | |||
| Wilmington (ASOS) | DE | 2026-05-02 03:00 | ASOS | 54 | 43 | 67 | 29.89 | 3 | SSW | |||
| Wilmington (ASOS) | DE | 2026-05-02 02:55 | ASOS | 54 | 43 | 67 | 29.89 | 3 | WSW | |||
| Wilmington (ASOS) | DE | 2026-05-02 02:51 | ASOS | 53 | 41 | 63 | 29.90 | 3 | WSW | |||
| Wilmington (ASOS) | DE | 2026-05-02 02:50 | ASOS | 54 | 41 | 62 | 29.90 | 3 | WSW | |||
| Wilmington (ASOS) | DE | 2026-05-02 02:40 | ASOS | 54 | 41 | 62 | 29.90 | 6 | WSW | |||
| Wilmington (ASOS) | DE | 2026-05-02 02:00 | ASOS | 54 | 41 | 62 | 29.90 | 8 | S | |||
| Wilmington (ASOS) | DE | 2026-05-02 02:35 | ASOS | 54 | 41 | 62 | 29.90 | 6 | SW | |||
| Wilmington (ASOS) | DE | 2026-05-02 02:30 | ASOS | 54 | 41 | 62 | 29.90 | 6 | SW | |||
| Wilmington (ASOS) | DE | 2026-05-02 02:25 | ASOS | 54 | 41 | 62 | 29.90 | 6 | SSW | |||
| Wilmington (ASOS) | DE | 2026-05-02 02:20 | ASOS | 54 | 41 | 62 | 29.90 | 6 | SSW | |||
| Wilmington (ASOS) | DE | 2026-05-02 02:15 | ASOS | 54 | 41 | 62 | 29.90 | 6 | SSW | |||
| Wilmington (ASOS) | DE | 2026-05-02 02:10 | ASOS | 54 | 41 | 62 | 29.90 | 6 | S | |||
| Wilmington (ASOS) | DE | 2026-05-02 02:05 | ASOS | 54 | 41 | 61 | 29.90 | 9 | S | |||
| Wilmington (ASOS) | DE | 2026-05-02 18:05 | ASOS | 63 | 28 | 27 | 29.87 | 12 | NW |
data collection created in 0.042120933532715 (queried in 0.008064) rendered in: 0.0006411075592041

